sensor_id;sensor_type;location;lat;lon;timestamp;pressure;altitude;pressure_sealevel;temperature;humidity
61939;BME280;47897;50.322;18.892;2022-07-29T00:01:43;98621.30;;;17.03;58.02
61939;BME280;47897;50.322;18.892;2022-07-29T00:04:10;98623.13;;;17.00;58.27
61939;BME280;47897;50.322;18.892;2022-07-29T00:06:38;98620.48;;;16.97;58.38
61939;BME280;47897;50.322;18.892;2022-07-29T00:09:05;98621.24;;;16.95;58.62
61939;BME280;47897;50.322;18.892;2022-07-29T00:11:32;98622.24;;;16.92;58.91
61939;BME280;47897;50.322;18.892;2022-07-29T00:13:59;98621.47;;;16.88;59.24
61939;BME280;47897;50.322;18.892;2022-07-29T00:16:26;98621.76;;;16.83;59.42
61939;BME280;47897;50.322;18.892;2022-07-29T00:18:53;98621.24;;;16.78;59.58
61939;BME280;47897;50.322;18.892;2022-07-29T00:21:21;98616.38;;;16.75;60.01
61939;BME280;47897;50.322;18.892;2022-07-29T00:23:47;98613.18;;;16.71;59.78
61939;BME280;47897;50.322;18.892;2022-07-29T00:26:14;98614.23;;;16.71;59.92
61939;BME280;47897;50.322;18.892;2022-07-29T00:28:41;98607.62;;;16.70;60.05
61939;BME280;47897;50.322;18.892;2022-07-29T00:31:08;98608.05;;;16.68;60.22
61939;BME280;47897;50.322;18.892;2022-07-29T00:33:35;98606.12;;;16.66;60.42
61939;BME280;47897;50.322;18.892;2022-07-29T00:36:02;98607.04;;;16.62;60.36
61939;BME280;47897;50.322;18.892;2022-07-29T00:38:29;98606.19;;;16.59;60.17
61939;BME280;47897;50.322;18.892;2022-07-29T00:40:56;98604.58;;;16.58;60.26
61939;BME280;47897;50.322;18.892;2022-07-29T00:43:23;98603.30;;;16.57;60.17
61939;BME280;47897;50.322;18.892;2022-07-29T00:45:50;98603.70;;;16.57;60.15
61939;BME280;47897;50.322;18.892;2022-07-29T00:48:17;98600.89;;;16.56;60.17
61939;BME280;47897;50.322;18.892;2022-07-29T00:50:44;98598.16;;;16.55;59.90
61939;BME280;47897;50.322;18.892;2022-07-29T00:53:11;98598.42;;;16.54;59.98
61939;BME280;47897;50.322;18.892;2022-07-29T00:55:38;98598.60;;;16.53;59.92
61939;BME280;47897;50.322;18.892;2022-07-29T00:58:06;98595.38;;;16.52;60.17
61939;BME280;47897;50.322;18.892;2022-07-29T01:00:33;98594.42;;;16.51;60.13
61939;BME280;47897;50.322;18.892;2022-07-29T01:03:00;98589.27;;;16.51;60.14
61939;BME280;47897;50.322;18.892;2022-07-29T01:05:27;98590.39;;;16.50;59.96
61939;BME280;47897;50.322;18.892;2022-07-29T01:07:57;98585.76;;;16.48;60.02
61939;BME280;47897;50.322;18.892;2022-07-29T01:10:25;98583.20;;;16.47;60.14
61939;BME280;47897;50.322;18.892;2022-07-29T01:12:54;98580.00;;;16.45;60.33
61939;BME280;47897;50.322;18.892;2022-07-29T01:15:21;98582.18;;;16.43;60.44
61939;BME280;47897;50.322;18.892;2022-07-29T01:18:05;98579.00;;;16.40;60.58
61939;BME280;47897;50.322;18.892;2022-07-29T01:24:11;98577.65;;;16.37;60.22
61939;BME280;47897;50.322;18.892;2022-07-29T01:26:49;98578.97;;;16.33;60.23
61939;BME280;47897;50.322;18.892;2022-07-29T01:29:45;98578.44;;;16.32;60.19
61939;BME280;47897;50.322;18.892;2022-07-29T01:32:19;98579.00;;;16.30;60.16
61939;BME280;47897;50.322;18.892;2022-07-29T01:35:02;98578.77;;;16.29;60.05
61939;BME280;47897;50.322;18.892;2022-07-29T01:37:39;98583.13;;;16.28;60.16
61939;BME280;47897;50.322;18.892;2022-07-29T01:42:56;98581.05;;;16.25;59.72
61939;BME280;47897;50.322;18.892;2022-07-29T01:50:35;98574.30;;;16.26;58.92
61939;BME280;47897;50.322;18.892;2022-07-29T01:53:06;98570.44;;;16.26;58.77
61939;BME280;47897;50.322;18.892;2022-07-29T01:55:38;98568.73;;;16.27;58.54
61939;BME280;47897;50.322;18.892;2022-07-29T01:58:06;98563.42;;;16.27;58.24
61939;BME280;47897;50.322;18.892;2022-07-29T02:00:36;98559.31;;;16.28;58.08
61939;BME280;47897;50.322;18.892;2022-07-29T02:03:09;98556.32;;;16.29;57.91
61939;BME280;47897;50.322;18.892;2022-07-29T02:05:40;98551.01;;;16.29;57.75
61939;BME280;47897;50.322;18.892;2022-07-29T02:08:08;98554.05;;;16.30;57.64
61939;BME280;47897;50.322;18.892;2022-07-29T02:10:38;98556.21;;;16.31;57.47
61939;BME280;47897;50.322;18.892;2022-07-29T02:13:07;98557.26;;;16.31;57.36
61939;BME280;47897;50.322;18.892;2022-07-29T02:15:37;98560.16;;;16.33;57.31
61939;BME280;47897;50.322;18.892;2022-07-29T02:18:32;98558.94;;;16.34;57.14
61939;BME280;47897;50.322;18.892;2022-07-29T02:21:01;98559.86;;;16.37;56.95
61939;BME280;47897;50.322;18.892;2022-07-29T02:23:30;98560.34;;;16.39;56.90
61939;BME280;47897;50.322;18.892;2022-07-29T02:25:59;98556.61;;;16.41;56.72
61939;BME280;47897;50.322;18.892;2022-07-29T02:28:29;98556.02;;;16.42;56.70
61939;BME280;47897;50.322;18.892;2022-07-29T02:31:00;98551.10;;;16.45;56.52
61939;BME280;47897;50.322;18.892;2022-07-29T02:33:27;98547.72;;;16.46;56.70
61939;BME280;47897;50.322;18.892;2022-07-29T02:35:56;98551.83;;;16.46;56.85
61939;BME280;47897;50.322;18.892;2022-07-29T02:38:27;98552.23;;;16.46;56.59
61939;BME280;47897;50.322;18.892;2022-07-29T02:41:17;98546.98;;;16.47;56.55
61939;BME280;47897;50.322;18.892;2022-07-29T02:43:48;98552.42;;;16.49;56.56
61939;BME280;47897;50.322;18.892;2022-07-29T02:46:21;98549.36;;;16.50;56.38
61939;BME280;47897;50.322;18.892;2022-07-29T02:51:45;98548.14;;;16.50;56.59
61939;BME280;47897;50.322;18.892;2022-07-29T02:54:33;98548.63;;;16.50;56.66
61939;BME280;47897;50.322;18.892;2022-07-29T02:57:11;98547.98;;;16.50;56.53
61939;BME280;47897;50.322;18.892;2022-07-29T02:59:43;98545.96;;;16.51;56.52
61939;BME280;47897;50.322;18.892;2022-07-29T03:02:13;98541.86;;;16.51;56.54
61939;BME280;47897;50.322;18.892;2022-07-29T03:04:42;98537.02;;;16.51;56.52
61939;BME280;47897;50.322;18.892;2022-07-29T03:07:12;98531.07;;;16.51;56.40
61939;BME280;47897;50.322;18.892;2022-07-29T03:09:41;98528.73;;;16.51;56.51
61939;BME280;47897;50.322;18.892;2022-07-29T03:12:10;98531.17;;;16.49;56.48
61939;BME280;47897;50.322;18.892;2022-07-29T03:14:38;98526.44;;;16.49;56.40
61939;BME280;47897;50.322;18.892;2022-07-29T03:17:05;98525.96;;;16.48;56.29
61939;BME280;47897;50.322;18.892;2022-07-29T03:19:33;98524.11;;;16.48;56.20
61939;BME280;47897;50.322;18.892;2022-07-29T03:22:01;98524.91;;;16.49;56.32
61939;BME280;47897;50.322;18.892;2022-07-29T03:24:32;98525.40;;;16.48;56.24
61939;BME280;47897;50.322;18.892;2022-07-29T03:27:00;98524.52;;;16.49;56.39
61939;BME280;47897;50.322;18.892;2022-07-29T03:29:28;98527.40;;;16.49;56.46
61939;BME280;47897;50.322;18.892;2022-07-29T03:31:55;98529.48;;;16.49;56.34
61939;BME280;47897;50.322;18.892;2022-07-29T03:34:22;98526.02;;;16.50;56.38
61939;BME280;47897;50.322;18.892;2022-07-29T03:36:49;98533.73;;;16.52;56.30
61939;BME280;47897;50.322;18.892;2022-07-29T03:39:22;98536.38;;;16.53;56.30
61939;BME280;47897;50.322;18.892;2022-07-29T03:41:55;98532.98;;;16.54;56.35
61939;BME280;47897;50.322;18.892;2022-07-29T03:44:23;98527.58;;;16.55;56.36
61939;BME280;47897;50.322;18.892;2022-07-29T03:46:54;98526.04;;;16.55;56.24
61939;BME280;47897;50.322;18.892;2022-07-29T03:49:23;98526.35;;;16.56;56.26
61939;BME280;47897;50.322;18.892;2022-07-29T03:51:51;98521.61;;;16.56;56.32
61939;BME280;47897;50.322;18.892;2022-07-29T03:54:18;98523.84;;;16.57;56.23
61939;BME280;47897;50.322;18.892;2022-07-29T03:56:46;98524.48;;;16.58;56.19
61939;BME280;47897;50.322;18.892;2022-07-29T03:59:16;98524.32;;;16.59;56.27
61939;BME280;47897;50.322;18.892;2022-07-29T04:01:48;98526.23;;;16.61;56.40
61939;BME280;47897;50.322;18.892;2022-07-29T04:04:16;98524.52;;;16.62;56.49
61939;BME280;47897;50.322;18.892;2022-07-29T04:06:45;98529.65;;;16.63;56.44
61939;BME280;47897;50.322;18.892;2022-07-29T04:09:12;98530.62;;;16.66;56.58
61939;BME280;47897;50.322;18.892;2022-07-29T04:11:40;98533.15;;;16.69;56.77
61939;BME280;47897;50.322;18.892;2022-07-29T04:14:08;98537.40;;;16.73;57.00
61939;BME280;47897;50.322;18.892;2022-07-29T04:16:35;98538.95;;;16.77;56.99
61939;BME280;47897;50.322;18.892;2022-07-29T04:19:02;98541.48;;;16.82;56.99
61939;BME280;47897;50.322;18.892;2022-07-29T04:21:29;98543.63;;;16.85;57.31
61939;BME280;47897;50.322;18.892;2022-07-29T04:23:59;98546.89;;;16.88;57.20
61939;BME280;47897;50.322;18.892;2022-07-29T04:26:26;98544.69;;;16.90;57.32
61939;BME280;47897;50.322;18.892;2022-07-29T04:28:53;98546.21;;;16.92;57.18
61939;BME280;47897;50.322;18.892;2022-07-29T04:31:20;98545.16;;;16.92;57.38
61939;BME280;47897;50.322;18.892;2022-07-29T04:33:47;98543.16;;;16.93;57.28
61939;BME280;47897;50.322;18.892;2022-07-29T04:36:14;98538.47;;;16.93;57.48
61939;BME280;47897;50.322;18.892;2022-07-29T04:38:41;98537.50;;;16.93;57.32
61939;BME280;47897;50.322;18.892;2022-07-29T04:41:08;98531.04;;;16.94;57.43
61939;BME280;47897;50.322;18.892;2022-07-29T04:43:35;98528.48;;;16.94;57.76
61939;BME280;47897;50.322;18.892;2022-07-29T04:46:05;98528.86;;;16.95;57.64
61939;BME280;47897;50.322;18.892;2022-07-29T04:48:33;98532.22;;;16.96;57.93
61939;BME280;47897;50.322;18.892;2022-07-29T04:51:00;98527.20;;;16.97;58.17
61939;BME280;47897;50.322;18.892;2022-07-29T04:53:27;98529.14;;;16.98;58.20
61939;BME280;47897;50.322;18.892;2022-07-29T04:55:54;98529.21;;;16.98;58.26
61939;BME280;47897;50.322;18.892;2022-07-29T04:58:21;98526.96;;;16.99;58.34
61939;BME280;47897;50.322;18.892;2022-07-29T05:00:50;98525.10;;;17.00;58.56
61939;BME280;47897;50.322;18.892;2022-07-29T05:03:17;98522.91;;;17.00;58.47
61939;BME280;47897;50.322;18.892;2022-07-29T05:05:44;98523.48;;;17.00;58.59
61939;BME280;47897;50.322;18.892;2022-07-29T05:08:11;98526.34;;;17.03;58.70
61939;BME280;47897;50.322;18.892;2022-07-29T05:10:38;98522.43;;;17.06;58.67
61939;BME280;47897;50.322;18.892;2022-07-29T05:13:06;98524.48;;;17.09;58.92
61939;BME280;47897;50.322;18.892;2022-07-29T05:15:34;98522.75;;;17.14;59.14
61939;BME280;47897;50.322;18.892;2022-07-29T05:18:02;98520.66;;;17.20;58.85
61939;BME280;47897;50.322;18.892;2022-07-29T05:20:30;98520.16;;;17.26;59.27
61939;BME280;47897;50.322;18.892;2022-07-29T05:22:58;98520.65;;;17.32;59.33
61939;BME280;47897;50.322;18.892;2022-07-29T05:25:27;98520.59;;;17.36;59.16
61939;BME280;47897;50.322;18.892;2022-07-29T05:27:55;98522.15;;;17.40;59.28
61939;BME280;47897;50.322;18.892;2022-07-29T05:30:22;98519.84;;;17.43;59.41
61939;BME280;47897;50.322;18.892;2022-07-29T05:32:49;98513.20;;;17.46;59.24
61939;BME280;47897;50.322;18.892;2022-07-29T05:35:17;98518.29;;;17.50;59.46
61939;BME280;47897;50.322;18.892;2022-07-29T05:37:43;98516.50;;;17.57;59.52
61939;BME280;47897;50.322;18.892;2022-07-29T05:40:10;98513.80;;;17.64;59.92
61939;BME280;47897;50.322;18.892;2022-07-29T05:42:38;98511.21;;;17.73;60.19
61939;BME280;47897;50.322;18.892;2022-07-29T05:45:06;98508.27;;;17.81;60.07
61939;BME280;47897;50.322;18.892;2022-07-29T05:47:32;98509.30;;;17.92;59.79
61939;BME280;47897;50.322;18.892;2022-07-29T05:50:00;98511.70;;;18.03;59.64
61939;BME280;47897;50.322;18.892;2022-07-29T05:52:27;98516.99;;;18.14;59.34
61939;BME280;47897;50.322;18.892;2022-07-29T05:54:54;98516.41;;;18.25;59.46
61939;BME280;47897;50.322;18.892;2022-07-29T05:57:23;98516.53;;;18.36;59.27
61939;BME280;47897;50.322;18.892;2022-07-29T05:59:51;98515.52;;;18.48;59.24
61939;BME280;47897;50.322;18.892;2022-07-29T06:02:18;98515.29;;;18.60;58.97
61939;BME280;47897;50.322;18.892;2022-07-29T06:04:45;98517.15;;;18.70;58.75
61939;BME280;47897;50.322;18.892;2022-07-29T06:07:12;98521.73;;;18.80;58.45
61939;BME280;47897;50.322;18.892;2022-07-29T06:09:39;98520.41;;;18.89;58.39
61939;BME280;47897;50.322;18.892;2022-07-29T06:12:06;98516.91;;;18.98;58.29
61939;BME280;47897;50.322;18.892;2022-07-29T06:14:34;98523.34;;;19.08;58.09
61939;BME280;47897;50.322;18.892;2022-07-29T06:17:02;98518.86;;;19.18;57.82
61939;BME280;47897;50.322;18.892;2022-07-29T06:19:29;98521.89;;;19.27;57.72
61939;BME280;47897;50.322;18.892;2022-07-29T06:21:56;98524.55;;;19.34;57.49
61939;BME280;47897;50.322;18.892;2022-07-29T06:24:23;98525.76;;;19.42;56.92
61939;BME280;47897;50.322;18.892;2022-07-29T06:26:49;98523.85;;;19.48;56.86
61939;BME280;47897;50.322;18.892;2022-07-29T06:29:17;98518.54;;;19.54;56.70
61939;BME280;47897;50.322;18.892;2022-07-29T06:31:44;98514.35;;;19.62;56.76
61939;BME280;47897;50.322;18.892;2022-07-29T06:34:11;98518.92;;;19.71;56.73
61939;BME280;47897;50.322;18.892;2022-07-29T06:36:38;98519.82;;;19.80;56.29
61939;BME280;47897;50.322;18.892;2022-07-29T06:39:06;98522.71;;;19.89;56.01
61939;BME280;47897;50.322;18.892;2022-07-29T06:41:34;98521.55;;;19.96;55.69
61939;BME280;47897;50.322;18.892;2022-07-29T06:44:02;98523.40;;;20.03;55.77
61939;BME280;47897;50.322;18.892;2022-07-29T06:46:29;98527.70;;;20.13;55.54
61939;BME280;47897;50.322;18.892;2022-07-29T06:48:56;98528.00;;;20.23;55.58
61939;BME280;47897;50.322;18.892;2022-07-29T06:51:23;98525.70;;;20.31;55.39
61939;BME280;47897;50.322;18.892;2022-07-29T06:53:51;98525.37;;;20.37;54.89
61939;BME280;47897;50.322;18.892;2022-07-29T06:56:19;98528.23;;;20.42;54.71
61939;BME280;47897;50.322;18.892;2022-07-29T06:58:46;98532.27;;;20.47;55.06
61939;BME280;47897;50.322;18.892;2022-07-29T07:01:13;98529.42;;;20.54;54.74
61939;BME280;47897;50.322;18.892;2022-07-29T07:03:40;98523.96;;;20.58;54.44
61939;BME280;47897;50.322;18.892;2022-07-29T07:06:08;98521.11;;;20.61;54.32
61939;BME280;47897;50.322;18.892;2022-07-29T07:08:35;98521.91;;;20.65;54.59
61939;BME280;47897;50.322;18.892;2022-07-29T07:11:02;98517.27;;;20.72;54.82
61939;BME280;47897;50.322;18.892;2022-07-29T07:13:31;98526.52;;;20.80;54.42
61939;BME280;47897;50.322;18.892;2022-07-29T07:16:02;98527.80;;;20.89;54.24
61939;BME280;47897;50.322;18.892;2022-07-29T07:18:29;98530.46;;;20.99;54.11
61939;BME280;47897;50.322;18.892;2022-07-29T07:20:58;98526.98;;;21.07;54.31
61939;BME280;47897;50.322;18.892;2022-07-29T07:23:26;98523.33;;;21.18;54.03
61939;BME280;47897;50.322;18.892;2022-07-29T07:25:54;98519.94;;;21.29;54.17
61939;BME280;47897;50.322;18.892;2022-07-29T07:28:22;98525.79;;;21.43;54.08
61939;BME280;47897;50.322;18.892;2022-07-29T07:30:51;98519.79;;;21.59;53.57
61939;BME280;47897;50.322;18.892;2022-07-29T07:33:20;98513.30;;;21.74;53.35
61939;BME280;47897;50.322;18.892;2022-07-29T07:35:48;98513.11;;;21.88;52.77
61939;BME280;47897;50.322;18.892;2022-07-29T07:38:15;98510.65;;;21.98;52.38
61939;BME280;47897;50.322;18.892;2022-07-29T07:40:42;98513.33;;;22.06;52.40
61939;BME280;47897;50.322;18.892;2022-07-29T07:43:10;98511.83;;;22.07;52.13
61939;BME280;47897;50.322;18.892;2022-07-29T07:45:39;98510.41;;;22.06;52.28
61939;BME280;47897;50.322;18.892;2022-07-29T07:48:07;98514.13;;;22.03;52.20
61939;BME280;47897;50.322;18.892;2022-07-29T07:50:37;98514.05;;;22.03;52.29
61939;BME280;47897;50.322;18.892;2022-07-29T07:53:06;98520.88;;;22.03;52.41
61939;BME280;47897;50.322;18.892;2022-07-29T07:55:39;98518.63;;;22.05;52.80
61939;BME280;47897;50.322;18.892;2022-07-29T07:58:07;98515.54;;;22.09;52.83
61939;BME280;47897;50.322;18.892;2022-07-29T08:00:36;98516.79;;;22.16;52.78
61939;BME280;47897;50.322;18.892;2022-07-29T08:03:03;98519.07;;;22.22;52.76
61939;BME280;47897;50.322;18.892;2022-07-29T08:05:36;98516.73;;;22.31;52.74
61939;BME280;47897;50.322;18.892;2022-07-29T08:08:05;98519.86;;;22.44;53.02
61939;BME280;47897;50.322;18.892;2022-07-29T08:10:33;98525.58;;;22.57;53.11
61939;BME280;47897;50.322;18.892;2022-07-29T08:13:20;98523.55;;;22.71;52.49
61939;BME280;47897;50.322;18.892;2022-07-29T08:15:49;98529.58;;;22.84;52.40
61939;BME280;47897;50.322;18.892;2022-07-29T08:18:25;98526.56;;;22.95;51.84
61939;BME280;47897;50.322;18.892;2022-07-29T08:20:52;98526.52;;;23.05;51.91
61939;BME280;47897;50.322;18.892;2022-07-29T08:23:19;98528.23;;;23.16;51.60
61939;BME280;47897;50.322;18.892;2022-07-29T08:25:47;98527.46;;;23.25;51.40
61939;BME280;47897;50.322;18.892;2022-07-29T08:28:15;98523.42;;;23.38;51.04
61939;BME280;47897;50.322;18.892;2022-07-29T08:30:43;98523.30;;;23.49;50.85
61939;BME280;47897;50.322;18.892;2022-07-29T08:33:10;98519.65;;;23.64;50.73
61939;BME280;47897;50.322;18.892;2022-07-29T08:35:38;98527.26;;;23.76;49.91
61939;BME280;47897;50.322;18.892;2022-07-29T08:38:05;98531.41;;;23.82;49.48
61939;BME280;47897;50.322;18.892;2022-07-29T08:40:33;98534.96;;;23.86;49.09
61939;BME280;47897;50.322;18.892;2022-07-29T08:43:08;98532.75;;;23.91;49.16
61939;BME280;47897;50.322;18.892;2022-07-29T08:45:46;98535.53;;;23.97;48.91
61939;BME280;47897;50.322;18.892;2022-07-29T08:48:22;98532.94;;;24.06;48.99
61939;BME280;47897;50.322;18.892;2022-07-29T08:50:54;98534.36;;;24.17;49.28
61939;BME280;47897;50.322;18.892;2022-07-29T08:53:25;98526.48;;;24.29;49.43
61939;BME280;47897;50.322;18.892;2022-07-29T08:55:54;98526.19;;;24.42;49.01
61939;BME280;47897;50.322;18.892;2022-07-29T08:58:23;98528.52;;;24.58;48.72
61939;BME280;47897;50.322;18.892;2022-07-29T09:00:54;98524.86;;;24.70;48.54
61939;BME280;47897;50.322;18.892;2022-07-29T09:03:25;98524.91;;;24.76;47.69
61939;BME280;47897;50.322;18.892;2022-07-29T09:05:53;98518.43;;;24.70;47.46
61939;BME280;47897;50.322;18.892;2022-07-29T09:08:20;98519.63;;;24.67;47.75
61939;BME280;47897;50.322;18.892;2022-07-29T09:10:48;98521.49;;;24.66;47.95
61939;BME280;47897;50.322;18.892;2022-07-29T09:13:15;98523.39;;;24.67;47.67
61939;BME280;47897;50.322;18.892;2022-07-29T09:15:42;98522.86;;;24.64;47.39
61939;BME280;47897;50.322;18.892;2022-07-29T09:18:09;98516.33;;;24.61;47.41
61939;BME280;47897;50.322;18.892;2022-07-29T09:20:36;98512.27;;;24.59;47.71
61939;BME280;47897;50.322;18.892;2022-07-29T09:23:22;98511.31;;;24.62;47.75
61939;BME280;47897;50.322;18.892;2022-07-29T09:25:49;98509.23;;;24.70;47.47
61939;BME280;47897;50.322;18.892;2022-07-29T09:28:17;98503.88;;;24.81;47.34
61939;BME280;47897;50.322;18.892;2022-07-29T09:30:55;98508.83;;;24.96;47.58
61939;BME280;47897;50.322;18.892;2022-07-29T09:33:25;98508.14;;;25.12;47.12
61939;BME280;47897;50.322;18.892;2022-07-29T09:36:07;98506.21;;;25.25;46.41
61939;BME280;47897;50.322;18.892;2022-07-29T09:38:35;98507.59;;;25.36;45.71
61939;BME280;47897;50.322;18.892;2022-07-29T09:41:05;98506.40;;;25.40;46.02
61939;BME280;47897;50.322;18.892;2022-07-29T09:43:33;98505.41;;;25.36;45.41
61939;BME280;47897;50.322;18.892;2022-07-29T09:46:18;98504.09;;;25.29;45.53
61939;BME280;47897;50.322;18.892;2022-07-29T09:49:14;98506.84;;;25.19;45.81
61939;BME280;47897;50.322;18.892;2022-07-29T09:51:41;98501.98;;;25.11;45.59
61939;BME280;47897;50.322;18.892;2022-07-29T09:54:34;98502.02;;;25.03;46.05
61939;BME280;47897;50.322;18.892;2022-07-29T09:57:08;98494.84;;;24.97;46.17
61939;BME280;47897;50.322;18.892;2022-07-29T09:59:39;98497.31;;;24.96;46.43
61939;BME280;47897;50.322;18.892;2022-07-29T10:02:12;98498.20;;;25.04;46.31
61939;BME280;47897;50.322;18.892;2022-07-29T10:04:41;98496.83;;;25.13;46.38
61939;BME280;47897;50.322;18.892;2022-07-29T10:07:09;98491.54;;;25.18;46.05
61939;BME280;47897;50.322;18.892;2022-07-29T10:09:36;98489.73;;;25.22;46.55
61939;BME280;47897;50.322;18.892;2022-07-29T10:14:34;98480.54;;;25.30;46.64
61939;BME280;47897;50.322;18.892;2022-07-29T10:17:01;98478.86;;;25.38;46.12
61939;BME280;47897;50.322;18.892;2022-07-29T10:19:29;98478.95;;;25.48;46.23
61939;BME280;47897;50.322;18.892;2022-07-29T10:22:01;98476.61;;;25.66;46.25
61939;BME280;47897;50.322;18.892;2022-07-29T10:24:31;98476.09;;;25.79;45.50
61939;BME280;47897;50.322;18.892;2022-07-29T10:27:00;98476.41;;;25.89;45.36
61939;BME280;47897;50.322;18.892;2022-07-29T10:29:29;98470.33;;;25.98;45.57
61939;BME280;47897;50.322;18.892;2022-07-29T10:34:56;98480.42;;;26.05;44.92
61939;BME280;47897;50.322;18.892;2022-07-29T10:37:35;98476.02;;;26.15;44.78
61939;BME280;47897;50.322;18.892;2022-07-29T10:43:28;98476.01;;;26.48;44.05
61939;BME280;47897;50.322;18.892;2022-07-29T10:45:58;98470.27;;;26.53;43.55
61939;BME280;47897;50.322;18.892;2022-07-29T10:48:26;98472.53;;;26.54;43.85
61939;BME280;47897;50.322;18.892;2022-07-29T10:51:01;98473.92;;;26.58;43.35
61939;BME280;47897;50.322;18.892;2022-07-29T10:53:50;98480.26;;;26.57;43.54
61939;BME280;47897;50.322;18.892;2022-07-29T10:56:28;98479.29;;;26.56;42.97
61939;BME280;47897;50.322;18.892;2022-07-29T11:01:45;98476.83;;;26.60;43.25
61939;BME280;47897;50.322;18.892;2022-07-29T11:04:12;98470.83;;;26.67;43.41
61939;BME280;47897;50.322;18.892;2022-07-29T11:09:24;98469.05;;;26.82;43.16
61939;BME280;47897;50.322;18.892;2022-07-29T11:11:52;98472.76;;;26.88;42.71
61939;BME280;47897;50.322;18.892;2022-07-29T11:17:24;98471.52;;;26.76;42.23
61939;BME280;47897;50.322;18.892;2022-07-29T11:19:51;98466.83;;;26.70;42.62
61939;BME280;47897;50.322;18.892;2022-07-29T11:22:34;98470.98;;;26.64;42.78
61939;BME280;47897;50.322;18.892;2022-07-29T11:25:17;98465.11;;;26.55;42.46
61939;BME280;47897;50.322;18.892;2022-07-29T11:27:45;98459.38;;;26.47;43.01
61939;BME280;47897;50.322;18.892;2022-07-29T11:30:12;98461.64;;;26.43;43.40
61939;BME280;47897;50.322;18.892;2022-07-29T11:32:41;98463.45;;;26.41;43.43
61939;BME280;47897;50.322;18.892;2022-07-29T11:35:22;98462.88;;;26.43;43.44
61939;BME280;47897;50.322;18.892;2022-07-29T11:40:35;98458.09;;;26.55;43.02
61939;BME280;47897;50.322;18.892;2022-07-29T11:43:02;98458.23;;;26.64;43.41
61939;BME280;47897;50.322;18.892;2022-07-29T11:45:45;98459.95;;;26.70;42.93
61939;BME280;47897;50.322;18.892;2022-07-29T11:48:17;98462.50;;;26.75;43.09
61939;BME280;47897;50.322;18.892;2022-07-29T11:50:44;98461.64;;;26.81;42.39
61939;BME280;47897;50.322;18.892;2022-07-29T11:53:12;98455.67;;;26.91;42.08
61939;BME280;47897;50.322;18.892;2022-07-29T11:55:40;98461.70;;;27.01;42.15
61939;BME280;47897;50.322;18.892;2022-07-29T11:58:07;98463.27;;;27.03;41.70
61939;BME280;47897;50.322;18.892;2022-07-29T12:00:37;98465.02;;;27.03;41.63
61939;BME280;47897;50.322;18.892;2022-07-29T12:03:07;98461.03;;;26.99;41.45
61939;BME280;47897;50.322;18.892;2022-07-29T12:05:42;98460.60;;;26.95;41.44
61939;BME280;47897;50.322;18.892;2022-07-29T12:08:17;98455.85;;;26.86;41.02
61939;BME280;47897;50.322;18.892;2022-07-29T12:10:47;98465.23;;;26.74;41.63
61939;BME280;47897;50.322;18.892;2022-07-29T12:13:19;98471.60;;;26.65;41.96
61939;BME280;47897;50.322;18.892;2022-07-29T12:15:54;98473.98;;;26.58;42.65
61939;BME280;47897;50.322;18.892;2022-07-29T12:18:24;98479.38;;;26.51;42.15
61939;BME280;47897;50.322;18.892;2022-07-29T12:21:00;98479.18;;;26.44;42.48
61939;BME280;47897;50.322;18.892;2022-07-29T12:23:32;98475.35;;;26.38;42.48
61939;BME280;47897;50.322;18.892;2022-07-29T12:26:05;98471.04;;;26.29;42.62
61939;BME280;47897;50.322;18.892;2022-07-29T12:28:37;98472.80;;;26.22;43.50
61939;BME280;47897;50.322;18.892;2022-07-29T12:31:04;98468.50;;;26.18;43.60
61939;BME280;47897;50.322;18.892;2022-07-29T12:33:31;98472.88;;;26.16;43.26
61939;BME280;47897;50.322;18.892;2022-07-29T12:36:00;98466.66;;;26.13;43.49
61939;BME280;47897;50.322;18.892;2022-07-29T12:38:29;98463.03;;;26.11;43.61
61939;BME280;47897;50.322;18.892;2022-07-29T12:40:56;98464.89;;;26.07;43.29
61939;BME280;47897;50.322;18.892;2022-07-29T12:43:25;98461.95;;;26.04;43.12
61939;BME280;47897;50.322;18.892;2022-07-29T12:45:54;98461.63;;;25.99;43.24
61939;BME280;47897;50.322;18.892;2022-07-29T12:51:02;98449.95;;;25.91;43.80
61939;BME280;47897;50.322;18.892;2022-07-29T12:53:29;98447.61;;;25.89;43.82
61939;BME280;47897;50.322;18.892;2022-07-29T12:55:57;98446.78;;;25.87;44.10
61939;BME280;47897;50.322;18.892;2022-07-29T12:58:36;98446.76;;;25.86;43.68
61939;BME280;47897;50.322;18.892;2022-07-29T13:01:10;98445.23;;;25.83;43.80
61939;BME280;47897;50.322;18.892;2022-07-29T13:06:34;98440.56;;;25.79;44.88
61939;BME280;47897;50.322;18.892;2022-07-29T13:09:05;98440.52;;;25.76;44.49
61939;BME280;47897;50.322;18.892;2022-07-29T13:11:36;98435.67;;;25.72;44.57
61939;BME280;47897;50.322;18.892;2022-07-29T13:14:04;98430.89;;;25.68;44.74
61939;BME280;47897;50.322;18.892;2022-07-29T13:16:31;98428.84;;;25.68;45.32
61939;BME280;47897;50.322;18.892;2022-07-29T13:19:09;98426.40;;;25.69;45.24
61939;BME280;47897;50.322;18.892;2022-07-29T13:21:38;98418.71;;;25.75;44.95
61939;BME280;47897;50.322;18.892;2022-07-29T13:24:06;98415.98;;;25.83;44.83
61939;BME280;47897;50.322;18.892;2022-07-29T13:26:34;98409.36;;;25.89;44.53
61939;BME280;47897;50.322;18.892;2022-07-29T13:29:01;98406.29;;;26.00;44.63
61939;BME280;47897;50.322;18.892;2022-07-29T13:31:28;98404.02;;;26.09;44.61
61939;BME280;47897;50.322;18.892;2022-07-29T13:33:55;98399.60;;;26.16;44.41
61939;BME280;47897;50.322;18.892;2022-07-29T13:36:23;98391.98;;;26.20;44.34
61939;BME280;47897;50.322;18.892;2022-07-29T13:38:50;98389.30;;;26.22;43.71
61939;BME280;47897;50.322;18.892;2022-07-29T13:41:17;98387.29;;;26.23;43.57
61939;BME280;47897;50.322;18.892;2022-07-29T13:43:44;98386.30;;;26.23;43.84